sensor_id;sensor_type;location;lat;lon;timestamp;P1;durP1;ratioP1;P2;durP2;ratioP2
34064;SDS011;20339;49.754;20.158;2022-08-04T00:02:02;6.30;;;4.60;;
34064;SDS011;20339;49.754;20.158;2022-08-04T00:04:38;4.70;;;4.20;;
34064;SDS011;20339;49.754;20.158;2022-08-04T00:07:18;5.40;;;4.90;;
34064;SDS011;20339;49.754;20.158;2022-08-04T00:09:57;5.80;;;4.90;;
34064;SDS011;20339;49.754;20.158;2022-08-04T00:12:31;6.10;;;5.40;;
34064;SDS011;20339;49.754;20.158;2022-08-04T00:15:06;6.30;;;4.50;;
34064;SDS011;20339;49.754;20.158;2022-08-04T00:17:43;5.20;;;4.70;;
34064;SDS011;20339;49.754;20.158;2022-08-04T00:20:19;5.40;;;4.70;;
34064;SDS011;20339;49.754;20.158;2022-08-04T00:22:52;5.30;;;4.80;;
34064;SDS011;20339;49.754;20.158;2022-08-04T00:25:25;5.20;;;4.60;;
34064;SDS011;20339;49.754;20.158;2022-08-04T00:27:58;5.60;;;4.80;;
34064;SDS011;20339;49.754;20.158;2022-08-04T00:30:30;7.30;;;4.70;;
34064;SDS011;20339;49.754;20.158;2022-08-04T00:33:02;5.70;;;4.80;;
34064;SDS011;20339;49.754;20.158;2022-08-04T00:35:36;5.90;;;4.90;;
34064;SDS011;20339;49.754;20.158;2022-08-04T00:38:08;6.10;;;5.00;;
34064;SDS011;20339;49.754;20.158;2022-08-04T00:40:44;6.60;;;4.90;;
34064;SDS011;20339;49.754;20.158;2022-08-04T00:43:26;5.60;;;4.80;;
34064;SDS011;20339;49.754;20.158;2022-08-04T00:46:25;6.60;;;4.60;;
34064;SDS011;20339;49.754;20.158;2022-08-04T00:49:22;5.40;;;4.90;;
34064;SDS011;20339;49.754;20.158;2022-08-04T00:52:31;5.60;;;5.10;;
34064;SDS011;20339;49.754;20.158;2022-08-04T00:55:30;6.00;;;5.00;;
34064;SDS011;20339;49.754;20.158;2022-08-04T00:58:21;5.80;;;5.20;;
34064;SDS011;20339;49.754;20.158;2022-08-04T01:00:59;6.60;;;5.30;;
34064;SDS011;20339;49.754;20.158;2022-08-04T01:03:46;6.10;;;4.90;;
34064;SDS011;20339;49.754;20.158;2022-08-04T01:06:34;5.80;;;5.20;;
34064;SDS011;20339;49.754;20.158;2022-08-04T01:09:15;5.80;;;5.20;;
34064;SDS011;20339;49.754;20.158;2022-08-04T01:12:06;5.50;;;5.00;;
34064;SDS011;20339;49.754;20.158;2022-08-04T01:14:54;6.40;;;4.80;;
34064;SDS011;20339;49.754;20.158;2022-08-04T01:17:39;5.50;;;4.90;;
34064;SDS011;20339;49.754;20.158;2022-08-04T01:20:19;5.90;;;4.80;;
34064;SDS011;20339;49.754;20.158;2022-08-04T01:23:06;7.70;;;5.20;;
34064;SDS011;20339;49.754;20.158;2022-08-04T01:26:24;7.00;;;5.40;;
34064;SDS011;20339;49.754;20.158;2022-08-04T01:29:11;5.40;;;4.60;;
34064;SDS011;20339;49.754;20.158;2022-08-04T01:31:59;5.20;;;4.60;;
34064;SDS011;20339;49.754;20.158;2022-08-04T01:34:35;6.00;;;5.50;;
34064;SDS011;20339;49.754;20.158;2022-08-04T01:37:14;6.70;;;5.20;;
34064;SDS011;20339;49.754;20.158;2022-08-04T01:39:59;6.30;;;4.80;;
34064;SDS011;20339;49.754;20.158;2022-08-04T01:42:34;5.20;;;4.70;;
34064;SDS011;20339;49.754;20.158;2022-08-04T01:45:07;6.70;;;5.30;;
34064;SDS011;20339;49.754;20.158;2022-08-04T01:47:42;6.20;;;5.50;;
34064;SDS011;20339;49.754;20.158;2022-08-04T01:50:18;6.90;;;4.90;;
34064;SDS011;20339;49.754;20.158;2022-08-04T01:52:52;6.00;;;5.30;;
34064;SDS011;20339;49.754;20.158;2022-08-04T01:55:24;7.80;;;5.90;;
34064;SDS011;20339;49.754;20.158;2022-08-04T01:57:58;5.10;;;4.60;;
34064;SDS011;20339;49.754;20.158;2022-08-04T02:00:33;6.20;;;5.60;;
34064;SDS011;20339;49.754;20.158;2022-08-04T02:03:13;6.80;;;5.10;;
34064;SDS011;20339;49.754;20.158;2022-08-04T02:05:45;5.20;;;4.30;;
34064;SDS011;20339;49.754;20.158;2022-08-04T02:08:19;5.60;;;4.90;;
34064;SDS011;20339;49.754;20.158;2022-08-04T02:11:03;5.50;;;4.80;;
34064;SDS011;20339;49.754;20.158;2022-08-04T02:13:41;6.30;;;4.70;;
34064;SDS011;20339;49.754;20.158;2022-08-04T02:16:26;5.10;;;4.50;;
34064;SDS011;20339;49.754;20.158;2022-08-04T02:19:04;4.50;;;4.10;;
34064;SDS011;20339;49.754;20.158;2022-08-04T02:21:43;6.20;;;4.30;;
34064;SDS011;20339;49.754;20.158;2022-08-04T02:24:24;4.90;;;4.10;;
34064;SDS011;20339;49.754;20.158;2022-08-04T02:27:00;4.60;;;3.90;;
34064;SDS011;20339;49.754;20.158;2022-08-04T02:29:36;5.80;;;4.30;;
34064;SDS011;20339;49.754;20.158;2022-08-04T02:32:18;5.70;;;4.70;;
34064;SDS011;20339;49.754;20.158;2022-08-04T02:35:08;6.20;;;4.60;;
34064;SDS011;20339;49.754;20.158;2022-08-04T02:37:45;5.20;;;4.70;;
34064;SDS011;20339;49.754;20.158;2022-08-04T02:40:25;6.40;;;4.60;;
34064;SDS011;20339;49.754;20.158;2022-08-04T02:42:58;6.70;;;4.90;;
34064;SDS011;20339;49.754;20.158;2022-08-04T02:45:36;5.60;;;4.70;;
34064;SDS011;20339;49.754;20.158;2022-08-04T02:48:10;5.90;;;4.60;;
34064;SDS011;20339;49.754;20.158;2022-08-04T02:50:42;5.50;;;4.80;;
34064;SDS011;20339;49.754;20.158;2022-08-04T02:53:15;4.90;;;4.30;;
34064;SDS011;20339;49.754;20.158;2022-08-04T02:55:49;4.50;;;4.10;;
34064;SDS011;20339;49.754;20.158;2022-08-04T02:58:23;4.60;;;4.20;;
34064;SDS011;20339;49.754;20.158;2022-08-04T03:01:00;5.00;;;4.50;;
34064;SDS011;20339;49.754;20.158;2022-08-04T03:03:35;5.90;;;4.50;;
34064;SDS011;20339;49.754;20.158;2022-08-04T03:12:23;5.10;;;4.60;;
34064;SDS011;20339;49.754;20.158;2022-08-04T03:18:26;5.90;;;4.60;;
34064;SDS011;20339;49.754;20.158;2022-08-04T03:21:46;4.80;;;4.40;;
34064;SDS011;20339;49.754;20.158;2022-08-04T03:34:01;4.50;;;4.00;;
34064;SDS011;20339;49.754;20.158;2022-08-04T03:46:10;4.00;;;3.60;;
34064;SDS011;20339;49.754;20.158;2022-08-04T03:52:04;4.40;;;3.50;;
34064;SDS011;20339;49.754;20.158;2022-08-04T03:55:10;4.90;;;4.10;;
34064;SDS011;20339;49.754;20.158;2022-08-04T03:58:26;6.00;;;4.50;;
34064;SDS011;20339;49.754;20.158;2022-08-04T04:01:11;5.10;;;3.90;;
34064;SDS011;20339;49.754;20.158;2022-08-04T04:04:00;5.90;;;4.00;;
34064;SDS011;20339;49.754;20.158;2022-08-04T04:10:01;4.20;;;3.80;;
34064;SDS011;20339;49.754;20.158;2022-08-04T04:12:49;3.50;;;3.20;;
34064;SDS011;20339;49.754;20.158;2022-08-04T04:15:34;4.30;;;3.80;;
34064;SDS011;20339;49.754;20.158;2022-08-04T04:18:22;4.40;;;4.00;;
34064;SDS011;20339;49.754;20.158;2022-08-04T04:21:18;4.00;;;3.60;;
34064;SDS011;20339;49.754;20.158;2022-08-04T04:24:00;4.90;;;3.80;;
34064;SDS011;20339;49.754;20.158;2022-08-04T04:26:47;3.90;;;3.60;;
34064;SDS011;20339;49.754;20.158;2022-08-04T04:29:45;4.30;;;3.90;;
34064;SDS011;20339;49.754;20.158;2022-08-04T04:32:31;4.40;;;4.00;;
34064;SDS011;20339;49.754;20.158;2022-08-04T04:35:14;5.30;;;4.70;;
34064;SDS011;20339;49.754;20.158;2022-08-04T04:37:59;5.10;;;3.70;;
34064;SDS011;20339;49.754;20.158;2022-08-04T04:40:47;5.40;;;4.30;;
34064;SDS011;20339;49.754;20.158;2022-08-04T04:43:34;4.80;;;4.00;;
34064;SDS011;20339;49.754;20.158;2022-08-04T04:46:20;3.60;;;3.30;;
34064;SDS011;20339;49.754;20.158;2022-08-04T04:49:02;4.50;;;3.70;;
34064;SDS011;20339;49.754;20.158;2022-08-04T04:51:41;5.20;;;3.60;;
34064;SDS011;20339;49.754;20.158;2022-08-04T04:54:22;4.10;;;3.30;;
34064;SDS011;20339;49.754;20.158;2022-08-04T04:57:02;4.70;;;3.90;;
34064;SDS011;20339;49.754;20.158;2022-08-04T04:59:38;5.40;;;4.10;;
34064;SDS011;20339;49.754;20.158;2022-08-04T05:05:29;5.20;;;4.20;;
34064;SDS011;20339;49.754;20.158;2022-08-04T05:08:23;6.50;;;4.50;;
34064;SDS011;20339;49.754;20.158;2022-08-04T05:11:18;5.40;;;4.20;;
34064;SDS011;20339;49.754;20.158;2022-08-04T05:14:05;6.10;;;4.80;;
34064;SDS011;20339;49.754;20.158;2022-08-04T05:16:40;5.80;;;4.40;;
34064;SDS011;20339;49.754;20.158;2022-08-04T05:19:18;4.60;;;4.20;;
34064;SDS011;20339;49.754;20.158;2022-08-04T05:22:00;4.80;;;3.90;;
34064;SDS011;20339;49.754;20.158;2022-08-04T05:24:36;4.50;;;4.00;;
34064;SDS011;20339;49.754;20.158;2022-08-04T05:27:13;4.10;;;3.70;;
34064;SDS011;20339;49.754;20.158;2022-08-04T05:29:50;4.60;;;4.20;;
34064;SDS011;20339;49.754;20.158;2022-08-04T05:32:25;5.50;;;5.00;;
34064;SDS011;20339;49.754;20.158;2022-08-04T05:35:02;4.70;;;4.30;;
34064;SDS011;20339;49.754;20.158;2022-08-04T05:37:37;4.60;;;4.20;;
34064;SDS011;20339;49.754;20.158;2022-08-04T05:40:12;4.60;;;4.00;;
34064;SDS011;20339;49.754;20.158;2022-08-04T05:42:46;4.20;;;3.80;;
34064;SDS011;20339;49.754;20.158;2022-08-04T05:45:19;4.60;;;4.00;;
34064;SDS011;20339;49.754;20.158;2022-08-04T05:47:54;4.00;;;3.60;;
34064;SDS011;20339;49.754;20.158;2022-08-04T05:50:26;4.20;;;3.80;;
34064;SDS011;20339;49.754;20.158;2022-08-04T05:52:58;4.60;;;4.20;;
34064;SDS011;20339;49.754;20.158;2022-08-04T05:55:30;4.40;;;3.70;;
34064;SDS011;20339;49.754;20.158;2022-08-04T05:58:02;4.90;;;4.00;;
34064;SDS011;20339;49.754;20.158;2022-08-04T06:00:34;3.90;;;3.30;;
34064;SDS011;20339;49.754;20.158;2022-08-04T06:03:09;4.10;;;3.20;;
34064;SDS011;20339;49.754;20.158;2022-08-04T06:05:42;3.20;;;2.90;;
34064;SDS011;20339;49.754;20.158;2022-08-04T06:08:16;4.00;;;3.70;;
34064;SDS011;20339;49.754;20.158;2022-08-04T06:10:47;6.90;;;4.00;;
34064;SDS011;20339;49.754;20.158;2022-08-04T06:13:24;4.70;;;4.20;;
34064;SDS011;20339;49.754;20.158;2022-08-04T06:15:57;4.30;;;3.90;;
34064;SDS011;20339;49.754;20.158;2022-08-04T06:18:30;4.50;;;3.50;;
34064;SDS011;20339;49.754;20.158;2022-08-04T06:21:07;3.40;;;3.00;;
34064;SDS011;20339;49.754;20.158;2022-08-04T06:23:40;4.50;;;3.00;;
34064;SDS011;20339;49.754;20.158;2022-08-04T06:26:13;3.40;;;2.70;;
34064;SDS011;20339;49.754;20.158;2022-08-04T06:28:47;3.40;;;2.80;;
34064;SDS011;20339;49.754;20.158;2022-08-04T06:31:21;3.90;;;3.00;;
34064;SDS011;20339;49.754;20.158;2022-08-04T06:34:10;5.50;;;3.10;;
34064;SDS011;20339;49.754;20.158;2022-08-04T06:36:43;3.10;;;2.50;;
34064;SDS011;20339;49.754;20.158;2022-08-04T06:39:16;3.80;;;2.70;;
34064;SDS011;20339;49.754;20.158;2022-08-04T06:41:49;2.90;;;2.60;;
34064;SDS011;20339;49.754;20.158;2022-08-04T06:44:25;3.20;;;2.60;;
34064;SDS011;20339;49.754;20.158;2022-08-04T06:46:58;2.60;;;2.30;;
34064;SDS011;20339;49.754;20.158;2022-08-04T06:49:30;2.50;;;2.30;;
34064;SDS011;20339;49.754;20.158;2022-08-04T06:52:03;3.30;;;2.20;;
34064;SDS011;20339;49.754;20.158;2022-08-04T06:54:35;3.10;;;2.30;;
34064;SDS011;20339;49.754;20.158;2022-08-04T06:57:09;4.20;;;2.10;;
34064;SDS011;20339;49.754;20.158;2022-08-04T06:59:45;2.90;;;2.30;;
34064;SDS011;20339;49.754;20.158;2022-08-04T07:02:19;2.20;;;2.00;;
34064;SDS011;20339;49.754;20.158;2022-08-04T07:04:53;3.50;;;2.00;;
34064;SDS011;20339;49.754;20.158;2022-08-04T07:07:27;2.70;;;1.90;;
34064;SDS011;20339;49.754;20.158;2022-08-04T07:10:00;3.40;;;2.20;;
34064;SDS011;20339;49.754;20.158;2022-08-04T07:12:32;3.30;;;2.00;;
34064;SDS011;20339;49.754;20.158;2022-08-04T07:15:05;2.70;;;1.90;;
34064;SDS011;20339;49.754;20.158;2022-08-04T07:17:39;1.70;;;1.50;;
34064;SDS011;20339;49.754;20.158;2022-08-04T07:20:12;2.10;;;1.50;;
34064;SDS011;20339;49.754;20.158;2022-08-04T07:22:43;2.10;;;1.70;;
34064;SDS011;20339;49.754;20.158;2022-08-04T07:25:17;1.70;;;1.50;;
34064;SDS011;20339;49.754;20.158;2022-08-04T07:27:51;1.60;;;1.40;;
34064;SDS011;20339;49.754;20.158;2022-08-04T07:30:22;2.30;;;1.60;;
34064;SDS011;20339;49.754;20.158;2022-08-04T07:32:56;2.50;;;1.30;;
34064;SDS011;20339;49.754;20.158;2022-08-04T07:35:28;3.30;;;2.00;;
34064;SDS011;20339;49.754;20.158;2022-08-04T07:38:00;2.70;;;1.50;;
34064;SDS011;20339;49.754;20.158;2022-08-04T07:40:33;2.80;;;1.70;;
34064;SDS011;20339;49.754;20.158;2022-08-04T07:43:06;1.30;;;1.20;;
34064;SDS011;20339;49.754;20.158;2022-08-04T07:45:39;1.60;;;1.40;;
34064;SDS011;20339;49.754;20.158;2022-08-04T07:48:10;2.80;;;1.40;;
34064;SDS011;20339;49.754;20.158;2022-08-04T07:50:42;1.80;;;1.10;;
34064;SDS011;20339;49.754;20.158;2022-08-04T07:53:14;1.40;;;1.10;;
34064;SDS011;20339;49.754;20.158;2022-08-04T07:55:46;3.00;;;1.50;;
34064;SDS011;20339;49.754;20.158;2022-08-04T07:58:18;1.10;;;1.00;;
34064;SDS011;20339;49.754;20.158;2022-08-04T08:00:49;1.10;;;1.00;;
34064;SDS011;20339;49.754;20.158;2022-08-04T08:03:22;3.70;;;1.30;;
34064;SDS011;20339;49.754;20.158;2022-08-04T08:05:55;2.20;;;1.00;;
34064;SDS011;20339;49.754;20.158;2022-08-04T08:08:26;1.30;;;1.20;;
34064;SDS011;20339;49.754;20.158;2022-08-04T08:10:58;1.80;;;1.30;;
34064;SDS011;20339;49.754;20.158;2022-08-04T08:13:29;1.40;;;1.30;;
34064;SDS011;20339;49.754;20.158;2022-08-04T08:16:02;1.80;;;1.40;;
34064;SDS011;20339;49.754;20.158;2022-08-04T08:18:34;2.10;;;1.30;;
34064;SDS011;20339;49.754;20.158;2022-08-04T08:21:06;1.60;;;1.50;;
34064;SDS011;20339;49.754;20.158;2022-08-04T08:23:38;3.00;;;1.20;;
34064;SDS011;20339;49.754;20.158;2022-08-04T08:26:12;2.40;;;1.30;;
34064;SDS011;20339;49.754;20.158;2022-08-04T08:28:44;2.00;;;1.30;;
34064;SDS011;20339;49.754;20.158;2022-08-04T08:31:16;1.90;;;1.30;;
34064;SDS011;20339;49.754;20.158;2022-08-04T08:33:48;2.10;;;1.50;;
34064;SDS011;20339;49.754;20.158;2022-08-04T08:36:24;3.10;;;1.40;;
34064;SDS011;20339;49.754;20.158;2022-08-04T08:39:01;1.80;;;1.50;;
34064;SDS011;20339;49.754;20.158;2022-08-04T08:45:01;1.50;;;1.40;;
34064;SDS011;20339;49.754;20.158;2022-08-04T08:48:04;1.50;;;1.30;;
34064;SDS011;20339;49.754;20.158;2022-08-04T08:50:56;3.00;;;1.30;;
34064;SDS011;20339;49.754;20.158;2022-08-04T08:56:53;1.60;;;1.20;;
34064;SDS011;20339;49.754;20.158;2022-08-04T08:59:42;1.70;;;1.40;;
34064;SDS011;20339;49.754;20.158;2022-08-04T09:05:26;2.50;;;1.70;;
34064;SDS011;20339;49.754;20.158;2022-08-04T09:08:14;1.50;;;1.30;;
34064;SDS011;20339;49.754;20.158;2022-08-04T09:10:56;2.10;;;1.80;;
34064;SDS011;20339;49.754;20.158;2022-08-04T09:13:36;3.50;;;1.40;;
34064;SDS011;20339;49.754;20.158;2022-08-04T09:16:15;1.70;;;1.20;;
34064;SDS011;20339;49.754;20.158;2022-08-04T09:18:58;3.30;;;1.60;;
34064;SDS011;20339;49.754;20.158;2022-08-04T09:21:37;1.70;;;1.60;;
34064;SDS011;20339;49.754;20.158;2022-08-04T09:24:15;2.60;;;1.80;;
34064;SDS011;20339;49.754;20.158;2022-08-04T09:26:52;2.50;;;1.80;;
34064;SDS011;20339;49.754;20.158;2022-08-04T09:29:32;2.00;;;1.80;;
34064;SDS011;20339;49.754;20.158;2022-08-04T09:32:11;3.60;;;1.80;;
34064;SDS011;20339;49.754;20.158;2022-08-04T09:35:05;8.10;;;2.00;;
34064;SDS011;20339;49.754;20.158;2022-08-04T09:37:51;2.50;;;2.00;;
34064;SDS011;20339;49.754;20.158;2022-08-04T09:40:31;4.30;;;1.90;;
34064;SDS011;20339;49.754;20.158;2022-08-04T09:43:10;2.60;;;2.10;;
34064;SDS011;20339;49.754;20.158;2022-08-04T09:45:53;2.30;;;1.90;;
34064;SDS011;20339;49.754;20.158;2022-08-04T09:48:38;2.50;;;1.90;;
34064;SDS011;20339;49.754;20.158;2022-08-04T09:51:19;2.10;;;1.80;;
34064;SDS011;20339;49.754;20.158;2022-08-04T09:54:05;2.90;;;2.20;;
34064;SDS011;20339;49.754;20.158;2022-08-04T09:56:47;4.10;;;2.40;;
34064;SDS011;20339;49.754;20.158;2022-08-04T09:59:26;3.10;;;1.90;;
34064;SDS011;20339;49.754;20.158;2022-08-04T10:02:05;2.80;;;2.10;;
34064;SDS011;20339;49.754;20.158;2022-08-04T10:04:39;2.40;;;2.20;;
34064;SDS011;20339;49.754;20.158;2022-08-04T10:07:18;3.60;;;2.40;;
34064;SDS011;20339;49.754;20.158;2022-08-04T10:10:11;3.20;;;2.20;;
34064;SDS011;20339;49.754;20.158;2022-08-04T10:12:56;2.40;;;2.20;;
34064;SDS011;20339;49.754;20.158;2022-08-04T10:15:44;3.20;;;2.70;;
34064;SDS011;20339;49.754;20.158;2022-08-04T10:18:24;2.90;;;2.40;;
34064;SDS011;20339;49.754;20.158;2022-08-04T10:21:10;2.70;;;2.50;;
34064;SDS011;20339;49.754;20.158;2022-08-04T10:23:51;2.90;;;2.20;;
34064;SDS011;20339;49.754;20.158;2022-08-04T10:26:35;3.30;;;2.60;;
34064;SDS011;20339;49.754;20.158;2022-08-04T10:29:18;2.60;;;2.40;;
34064;SDS011;20339;49.754;20.158;2022-08-04T10:31:58;3.50;;;2.80;;
34064;SDS011;20339;49.754;20.158;2022-08-04T10:34:38;2.70;;;2.50;;
34064;SDS011;20339;49.754;20.158;2022-08-04T10:37:15;3.10;;;2.70;;
34064;SDS011;20339;49.754;20.158;2022-08-04T10:39:53;2.60;;;2.40;;
34064;SDS011;20339;49.754;20.158;2022-08-04T10:42:55;3.50;;;2.70;;
34064;SDS011;20339;49.754;20.158;2022-08-04T10:45:31;4.80;;;3.40;;
34064;SDS011;20339;49.754;20.158;2022-08-04T10:48:06;3.10;;;2.70;;
34064;SDS011;20339;49.754;20.158;2022-08-04T10:50:46;2.90;;;2.60;;
34064;SDS011;20339;49.754;20.158;2022-08-04T10:53:26;3.00;;;2.70;;
34064;SDS011;20339;49.754;20.158;2022-08-04T10:56:02;5.10;;;3.00;;
34064;SDS011;20339;49.754;20.158;2022-08-04T10:58:39;3.00;;;2.80;;
34064;SDS011;20339;49.754;20.158;2022-08-04T11:01:16;3.50;;;3.20;;
34064;SDS011;20339;49.754;20.158;2022-08-04T11:03:55;2.80;;;2.60;;
34064;SDS011;20339;49.754;20.158;2022-08-04T11:06:28;4.60;;;2.90;;
34064;SDS011;20339;49.754;20.158;2022-08-04T11:09:01;4.90;;;3.30;;
34064;SDS011;20339;49.754;20.158;2022-08-04T11:11:35;5.10;;;3.70;;
34064;SDS011;20339;49.754;20.158;2022-08-04T11:14:11;3.90;;;3.00;;
34064;SDS011;20339;49.754;20.158;2022-08-04T11:16:46;3.30;;;3.00;;
34064;SDS011;20339;49.754;20.158;2022-08-04T11:19:24;3.70;;;3.20;;
34064;SDS011;20339;49.754;20.158;2022-08-04T11:22:05;3.40;;;3.10;;
34064;SDS011;20339;49.754;20.158;2022-08-04T11:24:42;3.50;;;3.00;;
34064;SDS011;20339;49.754;20.158;2022-08-04T11:27:24;4.00;;;2.90;;
34064;SDS011;20339;49.754;20.158;2022-08-04T11:30:04;3.50;;;3.10;;
34064;SDS011;20339;49.754;20.158;2022-08-04T11:32:46;5.00;;;3.00;;
34064;SDS011;20339;49.754;20.158;2022-08-04T11:35:28;3.90;;;2.80;;
34064;SDS011;20339;49.754;20.158;2022-08-04T11:38:06;4.30;;;3.60;;
34064;SDS011;20339;49.754;20.158;2022-08-04T11:40:41;6.80;;;3.10;;
34064;SDS011;20339;49.754;20.158;2022-08-04T11:43:18;3.50;;;3.20;;
34064;SDS011;20339;49.754;20.158;2022-08-04T11:45:55;3.20;;;2.70;;
34064;SDS011;20339;49.754;20.158;2022-08-04T11:48:31;3.30;;;2.60;;
34064;SDS011;20339;49.754;20.158;2022-08-04T11:51:05;3.40;;;3.00;;
34064;SDS011;20339;49.754;20.158;2022-08-04T11:53:39;4.80;;;3.10;;
34064;SDS011;20339;49.754;20.158;2022-08-04T11:56:12;3.30;;;2.90;;
34064;SDS011;20339;49.754;20.158;2022-08-04T11:58:44;4.90;;;2.90;;
34064;SDS011;20339;49.754;20.158;2022-08-04T12:01:17;4.70;;;2.90;;
34064;SDS011;20339;49.754;20.158;2022-08-04T12:03:59;3.30;;;2.70;;
34064;SDS011;20339;49.754;20.158;2022-08-04T12:06:38;5.90;;;3.30;;
34064;SDS011;20339;49.754;20.158;2022-08-04T12:09:20;3.30;;;3.00;;
34064;SDS011;20339;49.754;20.158;2022-08-04T12:12:01;4.70;;;2.90;;
34064;SDS011;20339;49.754;20.158;2022-08-04T12:14:46;3.30;;;2.80;;
34064;SDS011;20339;49.754;20.158;2022-08-04T12:17:26;4.00;;;2.80;;
34064;SDS011;20339;49.754;20.158;2022-08-04T12:20:03;3.30;;;2.50;;
34064;SDS011;20339;49.754;20.158;2022-08-04T12:22:42;2.90;;;2.70;;
34064;SDS011;20339;49.754;20.158;2022-08-04T12:25:19;5.00;;;2.90;;
34064;SDS011;20339;49.754;20.158;2022-08-04T12:27:54;3.90;;;2.80;;
34064;SDS011;20339;49.754;20.158;2022-08-04T12:30:31;4.50;;;2.70;;
34064;SDS011;20339;49.754;20.158;2022-08-04T12:33:09;3.30;;;2.70;;
34064;SDS011;20339;49.754;20.158;2022-08-04T12:35:43;3.20;;;2.90;;
34064;SDS011;20339;49.754;20.158;2022-08-04T12:38:23;3.10;;;2.80;;
34064;SDS011;20339;49.754;20.158;2022-08-04T12:41:01;3.20;;;2.90;;
34064;SDS011;20339;49.754;20.158;2022-08-04T12:43:35;3.10;;;2.90;;
34064;SDS011;20339;49.754;20.158;2022-08-04T12:46:10;6.00;;;2.90;;
34064;SDS011;20339;49.754;20.158;2022-08-04T12:48:50;3.90;;;3.20;;
34064;SDS011;20339;49.754;20.158;2022-08-04T12:51:27;3.30;;;3.00;;
34064;SDS011;20339;49.754;20.158;2022-08-04T12:54:05;3.50;;;2.90;;
34064;SDS011;20339;49.754;20.158;2022-08-04T12:56:37;3.70;;;3.20;;
34064;SDS011;20339;49.754;20.158;2022-08-04T12:59:10;3.90;;;3.20;;
34064;SDS011;20339;49.754;20.158;2022-08-04T13:01:46;4.10;;;3.00;;
34064;SDS011;20339;49.754;20.158;2022-08-04T13:04:19;4.70;;;2.90;;
34064;SDS011;20339;49.754;20.158;2022-08-04T13:06:55;3.70;;;3.00;;
34064;SDS011;20339;49.754;20.158;2022-08-04T13:09:32;4.10;;;3.00;;
34064;SDS011;20339;49.754;20.158;2022-08-04T13:12:10;5.10;;;3.00;;
34064;SDS011;20339;49.754;20.158;2022-08-04T13:14:43;3.40;;;3.00;;
34064;SDS011;20339;49.754;20.158;2022-08-04T13:17:27;3.50;;;3.10;;
34064;SDS011;20339;49.754;20.158;2022-08-04T13:20:18;2.90;;;2.70;;
34064;SDS011;20339;49.754;20.158;2022-08-04T13:25:45;3.40;;;3.10;;
34064;SDS011;20339;49.754;20.158;2022-08-04T13:28:19;3.50;;;3.00;;
34064;SDS011;20339;49.754;20.158;2022-08-04T13:30:55;5.50;;;2.90;;
34064;SDS011;20339;49.754;20.158;2022-08-04T13:33:28;4.40;;;2.80;;
34064;SDS011;20339;49.754;20.158;2022-08-04T13:36:03;3.00;;;2.80;;
34064;SDS011;20339;49.754;20.158;2022-08-04T13:38:37;3.00;;;2.70;;
34064;SDS011;20339;49.754;20.158;2022-08-04T13:41:17;3.60;;;2.60;;
34064;SDS011;20339;49.754;20.158;2022-08-04T13:43:51;3.00;;;2.60;;
34064;SDS011;20339;49.754;20.158;2022-08-04T13:46:27;3.90;;;3.00;;
34064;SDS011;20339;49.754;20.158;2022-08-04T13:49:00;3.50;;;2.90;;
34064;SDS011;20339;49.754;20.158;2022-08-04T13:51:37;2.90;;;2.60;;
34064;SDS011;20339;49.754;20.158;2022-08-04T13:54:09;2.90;;;2.60;;
34064;SDS011;20339;49.754;20.158;2022-08-04T13:56:43;3.50;;;2.80;;
34064;SDS011;20339;49.754;20.158;2022-08-04T13:59:18;4.00;;;2.70;;
34064;SDS011;20339;49.754;20.158;2022-08-04T14:01:57;3.00;;;2.80;;
34064;SDS011;20339;49.754;20.158;2022-08-04T14:04:39;4.40;;;3.00;;
34064;SDS011;20339;49.754;20.158;2022-08-04T14:07:18;3.40;;;2.80;;
34064;SDS011;20339;49.754;20.158;2022-08-04T14:09:53;3.30;;;2.80;;
34064;SDS011;20339;49.754;20.158;2022-08-04T14:12:25;3.20;;;2.80;;
34064;SDS011;20339;49.754;20.158;2022-08-04T14:14:57;4.70;;;2.70;;
34064;SDS011;20339;49.754;20.158;2022-08-04T14:17:29;5.00;;;2.80;;
34064;SDS011;20339;49.754;20.158;2022-08-04T14:20:01;3.20;;;2.90;;
34064;SDS011;20339;49.754;20.158;2022-08-04T14:22:35;3.40;;;3.10;;
34064;SDS011;20339;49.754;20.158;2022-08-04T14:25:09;3.80;;;3.10;;
34064;SDS011;20339;49.754;20.158;2022-08-04T14:27:44;4.20;;;2.80;;
34064;SDS011;20339;49.754;20.158;2022-08-04T14:30:25;3.80;;;2.50;;
34064;SDS011;20339;49.754;20.158;2022-08-04T14:32:58;4.00;;;2.90;;
34064;SDS011;20339;49.754;20.158;2022-08-04T14:35:32;2.90;;;2.60;;
34064;SDS011;20339;49.754;20.158;2022-08-04T14:38:06;3.10;;;2.70;;
34064;SDS011;20339;49.754;20.158;2022-08-04T14:40:40;3.60;;;2.80;;
34064;SDS011;20339;49.754;20.158;2022-08-04T14:43:16;4.30;;;2.90;;
34064;SDS011;20339;49.754;20.158;2022-08-04T14:45:48;4.60;;;2.70;;
34064;SDS011;20339;49.754;20.158;2022-08-04T14:48:31;3.00;;;2.70;;
34064;SDS011;20339;49.754;20.158;2022-08-04T14:51:03;3.50;;;2.90;;
34064;SDS011;20339;49.754;20.158;2022-08-04T14:53:41;3.60;;;3.00;;
34064;SDS011;20339;49.754;20.158;2022-08-04T14:56:17;3.90;;;2.80;;
34064;SDS011;20339;49.754;20.158;2022-08-04T14:58:56;2.90;;;2.60;;
34064;SDS011;20339;49.754;20.158;2022-08-04T15:01:29;4.40;;;2.80;;
34064;SDS011;20339;49.754;20.158;2022-08-04T15:04:03;3.20;;;2.70;;
34064;SDS011;20339;49.754;20.158;2022-08-04T15:06:35;4.10;;;2.70;;
34064;SDS011;20339;49.754;20.158;2022-08-04T15:09:07;3.90;;;2.50;;
34064;SDS011;20339;49.754;20.158;2022-08-04T15:11:39;3.20;;;2.90;;
34064;SDS011;20339;49.754;20.158;2022-08-04T15:14:13;4.30;;;2.70;;
34064;SDS011;20339;49.754;20.158;2022-08-04T15:16:46;3.00;;;2.60;;
34064;SDS011;20339;49.754;20.158;2022-08-04T15:19:17;2.60;;;2.40;;
34064;SDS011;20339;49.754;20.158;2022-08-04T15:21:50;4.40;;;2.70;;
34064;SDS011;20339;49.754;20.158;2022-08-04T15:24:23;2.90;;;2.70;;
34064;SDS011;20339;49.754;20.158;2022-08-04T15:26:55;4.70;;;2.90;;
34064;SDS011;20339;49.754;20.158;2022-08-04T15:29:29;3.20;;;2.50;;
34064;SDS011;20339;49.754;20.158;2022-08-04T15:32:08;5.40;;;3.40;;
34064;SDS011;20339;49.754;20.158;2022-08-04T15:34:46;3.00;;;2.70;;
34064;SDS011;20339;49.754;20.158;2022-08-04T15:37:22;3.30;;;2.50;;
34064;SDS011;20339;49.754;20.158;2022-08-04T15:39:59;4.90;;;2.50;;
34064;SDS011;20339;49.754;20.158;2022-08-04T15:42:37;4.70;;;2.50;;
34064;SDS011;20339;49.754;20.158;2022-08-04T15:45:23;2.60;;;2.40;;
34064;SDS011;20339;49.754;20.158;2022-08-04T15:51:03;3.70;;;2.40;;
34064;SDS011;20339;49.754;20.158;2022-08-04T15:56:46;4.30;;;2.60;;
34064;SDS011;20339;49.754;20.158;2022-08-04T16:02:37;3.30;;;2.50;;
34064;SDS011;20339;49.754;20.158;2022-08-04T16:05:34;5.50;;;2.70;;
34064;SDS011;20339;49.754;20.158;2022-08-04T16:08:16;5.00;;;2.50;;
34064;SDS011;20339;49.754;20.158;2022-08-04T16:10:49;3.00;;;2.40;;
34064;SDS011;20339;49.754;20.158;2022-08-04T16:13:22;3.80;;;2.60;;
34064;SDS011;20339;49.754;20.158;2022-08-04T16:15:54;3.70;;;2.50;;
34064;SDS011;20339;49.754;20.158;2022-08-04T16:18:40;4.10;;;2.60;;
34064;SDS011;20339;49.754;20.158;2022-08-04T16:21:21;3.20;;;2.40;;
34064;SDS011;20339;49.754;20.158;2022-08-04T16:26:42;2.40;;;2.20;;
34064;SDS011;20339;49.754;20.158;2022-08-04T16:29:31;3.90;;;2.60;;
34064;SDS011;20339;49.754;20.158;2022-08-04T16:32:14;4.20;;;2.70;;
34064;SDS011;20339;49.754;20.158;2022-08-04T16:34:50;2.80;;;2.10;;
34064;SDS011;20339;49.754;20.158;2022-08-04T16:37:30;4.80;;;2.90;;
34064;SDS011;20339;49.754;20.158;2022-08-04T16:42:55;5.70;;;2.60;;
34064;SDS011;20339;49.754;20.158;2022-08-04T16:45:40;4.00;;;2.90;;